createdAt,value
2023-01-08T00:01:27.564Z,21
2023-01-08T00:03:27.755Z,21
2023-01-08T00:05:27.761Z,21
2023-01-08T00:07:27.871Z,21
2023-01-08T00:09:28.007Z,19
2023-01-08T00:11:28.100Z,20
2023-01-08T00:13:28.327Z,19
2023-01-08T00:15:28.358Z,19
2023-01-08T00:17:28.399Z,19
2023-01-08T00:19:28.537Z,24
2023-01-08T00:21:28.619Z,24
2023-01-08T00:23:28.751Z,23
2023-01-08T00:25:28.852Z,22
2023-01-08T00:27:28.924Z,23
2023-01-08T00:29:29.066Z,25
2023-01-08T00:31:29.131Z,25
2023-01-08T00:33:29.235Z,24
2023-01-08T00:35:29.343Z,25
2023-01-08T00:37:29.458Z,20
2023-01-08T00:39:29.574Z,18
2023-01-08T00:41:29.672Z,18
2023-01-08T00:43:29.814Z,21
2023-01-08T00:45:30.057Z,25
2023-01-08T00:47:29.977Z,31
2023-01-08T00:49:30.090Z,31
2023-01-08T00:51:30.180Z,29
2023-01-08T00:53:30.320Z,26
2023-01-08T00:55:30.411Z,28
2023-01-08T00:57:30.488Z,32
2023-01-08T00:59:30.616Z,29
2023-01-08T01:01:30.855Z,26
2023-01-08T01:03:30.802Z,21
2023-01-08T01:05:30.934Z,20
2023-01-08T01:07:31.019Z,18
2023-01-08T01:09:31.107Z,21
2023-01-08T01:11:31.217Z,19
2023-01-08T01:13:31.321Z,18
2023-01-08T01:15:31.452Z,20
2023-01-08T01:17:31.642Z,20
2023-01-08T01:19:31.643Z,20
2023-01-08T01:21:31.742Z,21
2023-01-08T01:23:31.807Z,22
2023-01-08T01:25:31.936Z,27
2023-01-08T01:27:32.044Z,30
2023-01-08T01:29:32.148Z,31
2023-01-08T01:31:32.233Z,35
2023-01-08T01:33:32.364Z,39
2023-01-08T01:35:32.490Z,45
2023-01-08T01:37:32.567Z,49
2023-01-08T01:39:32.742Z,53
2023-01-08T01:41:32.853Z,56
2023-01-08T01:43:32.894Z,58
2023-01-08T01:45:33.045Z,60
2023-01-08T01:47:33.111Z,65
2023-01-08T01:49:33.246Z,68
2023-01-08T01:51:33.351Z,71
2023-01-08T01:53:33.434Z,78
2023-01-08T01:55:33.528Z,66
2023-01-08T01:57:33.597Z,58
2023-01-08T01:59:33.732Z,51
2023-01-08T02:01:33.942Z,32
2023-01-08T02:03:33.951Z,22
2023-01-08T02:05:34.060Z,23
2023-01-08T02:07:34.136Z,20
2023-01-08T02:09:34.222Z,23
2023-01-08T02:11:34.350Z,23
2023-01-08T02:13:34.422Z,23
2023-01-08T02:15:34.545Z,21
2023-01-08T02:17:34.616Z,21
2023-01-08T02:19:34.739Z,19
2023-01-08T02:21:34.829Z,17
2023-01-08T02:23:34.911Z,18
2023-01-08T02:25:34.990Z,17
2023-01-08T02:27:35.090Z,18
2023-01-08T02:29:35.219Z,18
2023-01-08T02:31:35.274Z,19
2023-01-08T02:33:35.386Z,20
2023-01-08T02:35:35.524Z,20
2023-01-08T02:37:35.587Z,18
2023-01-08T02:39:35.695Z,19
2023-01-08T02:43:35.890Z,21
2023-01-08T02:45:35.996Z,26
2023-01-08T02:47:36.108Z,29
2023-01-08T02:49:36.189Z,31
2023-01-08T02:51:36.289Z,33
2023-01-08T02:53:36.365Z,35
2023-01-08T02:55:36.499Z,37
2023-01-08T02:57:36.628Z,38
2023-01-08T02:59:36.718Z,43
2023-01-08T03:01:36.975Z,46
2023-01-08T03:03:36.912Z,47
2023-01-08T03:05:36.998Z,49
2023-01-08T03:07:37.099Z,49
2023-01-08T03:09:37.222Z,51
2023-01-08T03:11:37.455Z,53
2023-01-08T03:13:37.435Z,51
2023-01-08T03:15:37.549Z,47
2023-01-08T03:17:37.634Z,44
2023-01-08T03:19:37.726Z,40
2023-01-08T03:21:37.883Z,40
2023-01-08T03:23:37.918Z,24
2023-01-08T03:25:38.027Z,22
2023-01-08T03:27:38.136Z,21
2023-01-08T03:29:38.219Z,21
2023-01-08T03:31:38.336Z,19
2023-01-08T03:33:38.452Z,17
2023-01-08T03:35:38.529Z,17
2023-01-08T03:37:38.645Z,17
2023-01-08T03:41:38.839Z,17
2023-01-08T03:43:38.924Z,17
2023-01-08T03:45:39.060Z,16
2023-01-08T03:47:39.225Z,16
2023-01-08T03:49:39.222Z,17
2023-01-08T03:51:39.332Z,18
2023-01-08T03:53:39.441Z,17
2023-01-08T03:55:39.541Z,19
2023-01-08T03:57:39.612Z,20
2023-01-08T03:59:39.750Z,27
2023-01-08T04:01:40.052Z,23
2023-01-08T04:03:40.100Z,22
2023-01-08T04:05:40.053Z,16
2023-01-08T04:07:40.143Z,16
2023-01-08T04:09:40.242Z,14
2023-01-08T04:11:40.347Z,13
2023-01-08T04:13:40.456Z,14
2023-01-08T04:15:40.703Z,13
2023-01-08T04:17:40.692Z,13
2023-01-08T04:19:40.769Z,13
2023-01-08T04:21:40.913Z,13
2023-01-08T04:23:40.981Z,13
2023-01-08T04:25:41.104Z,13
2023-01-08T04:27:41.190Z,13
2023-01-08T04:29:41.269Z,14
2023-01-08T04:31:41.397Z,13
2023-01-08T04:33:41.490Z,12
2023-01-08T04:35:41.608Z,11
2023-01-08T04:37:41.705Z,11
2023-01-08T04:41:41.894Z,10
2023-01-08T04:43:41.988Z,10
2023-01-08T04:45:42.126Z,11
2023-01-08T04:47:42.244Z,10
2023-01-08T04:49:42.319Z,12
2023-01-08T04:51:42.364Z,17
2023-01-08T04:53:42.488Z,19
2023-01-08T04:55:42.594Z,23
2023-01-08T04:57:42.695Z,25
2023-01-08T04:59:42.816Z,30
2023-01-08T05:01:43.011Z,38
2023-01-08T05:03:43.031Z,39
2023-01-08T05:05:43.138Z,42
2023-01-08T05:07:43.207Z,43
2023-01-08T05:09:43.318Z,45
2023-01-08T05:11:43.400Z,46
2023-01-08T05:13:43.521Z,45
2023-01-08T05:15:43.697Z,45
2023-01-08T05:17:43.735Z,44
2023-01-08T05:19:43.855Z,40
2023-01-08T05:21:43.927Z,25
2023-01-08T05:23:44.044Z,17
2023-01-08T05:25:44.122Z,17
2023-01-08T05:27:44.262Z,18
2023-01-08T05:29:44.358Z,18
2023-01-08T05:31:44.427Z,20
2023-01-08T05:33:44.546Z,17
2023-01-08T05:35:44.638Z,21
2023-01-08T05:37:44.709Z,21
2023-01-08T05:39:44.916Z,21
2023-01-08T05:41:44.946Z,17
2023-01-08T05:43:45.041Z,16
2023-01-08T05:45:45.244Z,15
2023-01-08T05:47:45.233Z,14
2023-01-08T05:49:45.331Z,14
2023-01-08T05:51:45.420Z,13
2023-01-08T05:53:45.527Z,15
2023-01-08T05:55:45.629Z,17
2023-01-08T05:57:45.732Z,18
2023-01-08T05:59:45.839Z,14
2023-01-08T06:01:46.083Z,14
2023-01-08T06:03:46.107Z,14
2023-01-08T06:05:46.191Z,15
2023-01-08T06:07:46.210Z,16
2023-01-08T06:09:46.325Z,14
2023-01-08T06:11:46.507Z,14
2023-01-08T06:13:46.508Z,14
2023-01-08T06:15:46.665Z,14
2023-01-08T06:17:46.844Z,15
2023-01-08T06:19:46.856Z,16
2023-01-08T06:21:46.926Z,14
2023-01-08T06:23:47.026Z,17
2023-01-08T06:25:47.138Z,15
2023-01-08T06:27:47.228Z,15
2023-01-08T06:29:47.344Z,16
2023-01-08T06:31:47.416Z,26
2023-01-08T06:33:47.512Z,21
2023-01-08T06:35:47.624Z,21
2023-01-08T06:37:47.716Z,18
2023-01-08T06:39:47.840Z,17
2023-01-08T06:41:47.923Z,14
2023-01-08T06:43:48.019Z,17
2023-01-08T06:45:48.161Z,17
2023-01-08T06:47:48.255Z,15
2023-01-08T06:49:48.372Z,17
2023-01-08T06:51:48.436Z,24
2023-01-08T06:53:48.506Z,23
2023-01-08T06:55:48.651Z,22
2023-01-08T06:57:48.721Z,33
2023-01-08T06:59:48.801Z,37
2023-01-08T07:01:49.171Z,62
2023-01-08T07:03:49.015Z,55
2023-01-08T07:05:49.111Z,51
2023-01-08T07:07:49.216Z,45
2023-01-08T07:09:49.339Z,43
2023-01-08T07:11:49.434Z,39
2023-01-08T07:13:49.518Z,35
2023-01-08T07:15:49.741Z,34
2023-01-08T07:17:49.760Z,35
2023-01-08T07:19:49.853Z,37
2023-01-08T07:21:49.933Z,39
2023-01-08T07:23:50.090Z,41
2023-01-08T07:25:50.123Z,40
2023-01-08T07:27:50.217Z,40
2023-01-08T07:29:50.325Z,41
2023-01-08T07:31:50.516Z,45
2023-01-08T07:33:50.480Z,47
2023-01-08T07:35:50.601Z,55
2023-01-08T07:37:50.719Z,65
2023-01-08T07:39:50.827Z,72
2023-01-08T07:41:50.894Z,88
2023-01-08T07:43:51.048Z,93
2023-01-08T07:45:51.103Z,102
2023-01-08T07:47:51.293Z,99
2023-01-08T07:49:51.311Z,129
2023-01-08T07:51:51.395Z,112
2023-01-08T07:53:51.495Z,113
2023-01-08T07:55:51.590Z,111
2023-01-08T07:57:51.689Z,110
2023-01-08T07:59:51.794Z,90
2023-01-08T08:01:51.973Z,72
2023-01-08T08:03:52.072Z,75
2023-01-08T08:05:52.076Z,81
2023-01-08T08:07:52.175Z,72
2023-01-08T08:09:52.281Z,49
2023-01-08T08:11:52.378Z,40
2023-01-08T08:13:54.184Z,31
2023-01-08T08:15:52.647Z,26
2023-01-08T08:17:52.667Z,27
2023-01-08T08:19:52.781Z,36
2023-01-08T08:21:52.887Z,131
2023-01-08T08:23:52.989Z,227
2023-01-08T08:25:53.090Z,203
2023-01-08T08:27:53.163Z,507
2023-01-08T08:29:53.290Z,308
2023-01-08T08:31:53.366Z,468
2023-01-08T08:33:53.491Z,210
2023-01-08T08:35:53.594Z,172
2023-01-08T08:37:53.650Z,146
2023-01-08T08:39:53.757Z,153
2023-01-08T08:41:53.874Z,149
2023-01-08T08:43:53.962Z,128
2023-01-08T08:45:54.083Z,134
2023-01-08T08:47:54.181Z,158
2023-01-08T08:49:54.276Z,145
2023-01-08T08:51:54.360Z,121
2023-01-08T08:53:54.476Z,125
2023-01-08T08:55:54.581Z,125
2023-01-08T08:57:54.670Z,127
2023-01-08T08:59:54.760Z,106
2023-01-08T09:01:55.172Z,83
2023-01-08T09:03:54.971Z,87
2023-01-08T09:05:55.113Z,78
2023-01-08T09:07:55.159Z,76
2023-01-08T09:09:55.261Z,67
2023-01-08T09:11:55.350Z,65
2023-01-08T09:13:55.465Z,62
2023-01-08T09:15:55.611Z,59
2023-01-08T09:17:55.627Z,54
2023-01-08T09:19:55.757Z,53
2023-01-08T09:21:55.873Z,54
2023-01-08T09:23:55.929Z,53
2023-01-08T09:25:56.063Z,49
2023-01-08T09:27:56.123Z,45
2023-01-08T09:29:56.227Z,40
2023-01-08T09:31:56.425Z,37
2023-01-08T09:33:56.447Z,37
2023-01-08T09:35:56.532Z,36
2023-01-08T09:37:56.626Z,36
2023-01-08T09:40:02.177Z,30
2023-01-08T09:41:56.799Z,27
2023-01-08T09:45:57.051Z,26
2023-01-08T09:47:57.111Z,23
2023-01-08T09:49:57.180Z,23
2023-01-08T09:51:57.297Z,24
2023-01-08T09:53:57.391Z,25
2023-01-08T09:56:09.168Z,26
2023-01-08T09:57:57.549Z,27
2023-01-08T09:59:57.689Z,26
2023-01-08T10:01:57.869Z,26
2023-01-08T10:03:57.834Z,25
2023-01-08T10:05:57.916Z,24
2023-01-08T10:07:58.051Z,26
2023-01-08T10:09:58.121Z,26
2023-01-08T10:11:58.219Z,32
2023-01-08T10:13:58.298Z,47
2023-01-08T10:15:58.429Z,50
2023-01-08T10:17:58.469Z,51
2023-01-08T10:19:58.571Z,55
2023-01-08T10:21:58.671Z,57
2023-01-08T10:23:58.771Z,49
2023-01-08T10:25:58.846Z,47
2023-01-08T10:27:58.978Z,45
2023-01-08T10:29:58.995Z,45
2023-01-08T10:31:59.098Z,43
2023-01-08T10:33:59.196Z,45
2023-01-08T10:35:59.255Z,47
2023-01-08T10:37:59.353Z,47
2023-01-08T10:39:59.442Z,45
2023-01-08T10:41:59.534Z,41
2023-01-08T10:43:59.622Z,42
2023-01-08T10:45:59.813Z,42
2023-01-08T10:47:59.837Z,44
2023-01-08T10:49:59.901Z,45
2023-01-08T10:51:59.998Z,43
2023-01-08T10:54:00.088Z,44
2023-01-08T10:56:00.154Z,45
2023-01-08T10:58:00.253Z,47
2023-01-08T11:00:00.328Z,44
2023-01-08T11:02:00.533Z,41
2023-01-08T11:04:00.526Z,42
2023-01-08T11:06:00.620Z,48
2023-01-08T11:08:00.737Z,46
2023-01-08T11:10:00.865Z,41
2023-01-08T11:12:00.856Z,37
2023-01-08T11:14:00.957Z,35
2023-01-08T11:16:01.126Z,35
2023-01-08T11:18:01.091Z,31
2023-01-08T11:20:01.207Z,32
2023-01-08T11:22:01.280Z,33
2023-01-08T11:24:31.430Z,35
2023-01-08T11:26:31.523Z,35
2023-01-08T11:28:31.618Z,36
2023-01-08T11:30:31.737Z,33
2023-01-08T11:32:31.859Z,34
2023-01-08T11:34:31.959Z,34
2023-01-08T11:36:32.106Z,32
2023-01-08T11:38:32.177Z,31
2023-01-08T11:40:32.331Z,32
2023-01-08T11:42:32.431Z,35
2023-01-08T11:44:32.530Z,32
2023-01-08T11:46:32.621Z,36
2023-01-08T11:48:32.707Z,38
2023-01-08T11:50:32.838Z,35
2023-01-08T11:52:32.923Z,34
2023-01-08T11:54:33.042Z,33
2023-01-08T11:56:33.115Z,36
2023-01-08T11:58:33.228Z,33
2023-01-08T12:00:33.350Z,34
2023-01-08T12:02:33.575Z,32
2023-01-08T12:04:33.531Z,33
2023-01-08T12:06:35.118Z,33
2023-01-08T12:08:33.774Z,35
2023-01-08T12:10:33.891Z,36
2023-01-08T12:12:33.985Z,40
2023-01-08T12:14:34.109Z,39
2023-01-08T12:16:34.260Z,40
2023-01-08T12:18:34.285Z,64
2023-01-08T12:20:34.378Z,58
2023-01-08T12:22:34.485Z,126
2023-01-08T12:24:34.587Z,104
2023-01-08T12:26:34.713Z,164
2023-01-08T12:28:34.816Z,145
2023-01-08T12:30:34.987Z,169
2023-01-08T12:32:35.036Z,252
2023-01-08T12:34:35.134Z,67
2023-01-08T12:36:35.260Z,92
2023-01-08T12:38:35.355Z,146
2023-01-08T12:40:35.475Z,72
2023-01-08T12:42:35.564Z,75
2023-01-08T12:44:35.694Z,75
2023-01-08T12:46:35.819Z,41
2023-01-08T12:48:35.912Z,47
2023-01-08T12:50:36.010Z,38
2023-01-08T12:52:36.120Z,35
2023-01-08T12:54:36.201Z,31
2023-01-08T12:56:36.306Z,30
2023-01-08T12:58:36.406Z,33
2023-01-08T13:00:36.509Z,30
2023-01-08T13:02:36.760Z,29
2023-01-08T13:04:36.707Z,45
2023-01-08T13:06:36.804Z,63
2023-01-08T13:08:36.893Z,47
2023-01-08T13:10:36.970Z,42
2023-01-08T13:12:37.110Z,40
2023-01-08T13:14:37.154Z,67
2023-01-08T13:16:37.429Z,79
2023-01-08T13:18:37.353Z,103
2023-01-08T13:20:37.452Z,108
2023-01-08T13:22:37.551Z,89
2023-01-08T13:24:37.679Z,88
2023-01-08T13:26:37.747Z,90
2023-01-08T13:28:37.843Z,89
2023-01-08T13:30:37.937Z,86
2023-01-08T13:32:38.107Z,78
2023-01-08T13:34:38.165Z,65
2023-01-08T13:36:38.236Z,61
2023-01-08T13:38:38.316Z,55
2023-01-08T13:40:38.437Z,52
2023-01-08T13:42:38.522Z,49
2023-01-08T13:44:38.596Z,45
2023-01-08T13:46:38.717Z,43
2023-01-08T13:48:38.804Z,41
2023-01-08T13:50:38.919Z,38
2023-01-08T13:52:39.021Z,36
2023-01-08T13:54:39.103Z,36
2023-01-08T13:56:39.186Z,37
2023-01-08T13:58:39.282Z,39
2023-01-08T14:00:39.368Z,41
2023-01-08T14:02:39.481Z,62
2023-01-08T14:04:39.557Z,75
2023-01-08T14:06:39.636Z,79
2023-01-08T14:08:39.696Z,68
2023-01-08T14:10:39.813Z,79
2023-01-08T14:12:39.876Z,67
2023-01-08T14:14:39.983Z,62
2023-01-08T14:16:40.116Z,59
2023-01-08T14:18:40.155Z,56
2023-01-08T14:20:40.229Z,52
2023-01-08T14:22:40.322Z,49
2023-01-08T14:24:40.428Z,46
2023-01-08T14:26:40.504Z,46
2023-01-08T14:28:40.702Z,49
2023-01-08T14:30:40.689Z,51
2023-01-08T14:32:40.753Z,47
2023-01-08T14:34:40.883Z,42
2023-01-08T14:36:40.979Z,40
2023-01-08T14:38:41.036Z,70
2023-01-08T14:40:41.110Z,92
2023-01-08T14:42:41.207Z,92
2023-01-08T14:44:42.609Z,93
2023-01-08T14:46:41.361Z,95
2023-01-08T14:48:41.417Z,85
2023-01-08T14:50:41.512Z,77
2023-01-08T14:52:41.610Z,102
2023-01-08T14:54:41.691Z,128
2023-01-08T14:56:41.772Z,130
2023-01-08T14:58:41.843Z,128
2023-01-08T15:00:41.938Z,119
2023-01-08T15:03:12.081Z,167
2023-01-08T15:05:12.196Z,204
2023-01-08T15:07:12.296Z,242
2023-01-08T15:09:12.443Z,145
2023-01-08T15:11:12.534Z,202
2023-01-08T15:13:12.623Z,123
2023-01-08T15:15:12.779Z,143
2023-01-08T15:17:12.871Z,110
2023-01-08T15:19:12.998Z,109
2023-01-08T15:21:13.096Z,83
2023-01-08T15:23:13.213Z,73
2023-01-08T15:25:13.459Z,74
2023-01-08T15:27:13.484Z,80
2023-01-08T15:29:13.543Z,70
2023-01-08T15:31:13.668Z,75
2023-01-08T15:33:15.365Z,49
2023-01-08T15:35:14.088Z,38
2023-01-08T15:37:14.016Z,37
2023-01-08T15:39:14.085Z,35
2023-01-08T15:41:14.178Z,35
2023-01-08T15:43:14.265Z,33
2023-01-08T15:45:14.375Z,30
2023-01-08T15:47:14.475Z,45
2023-01-08T15:49:14.569Z,56
2023-01-08T15:51:14.690Z,38
2023-01-08T15:53:14.791Z,38
2023-01-08T15:55:14.889Z,37
2023-01-08T15:57:15.004Z,33
2023-01-08T15:59:15.090Z,30
2023-01-08T16:01:15.326Z,28
2023-01-08T16:03:15.336Z,21
2023-01-08T16:05:15.448Z,21
2023-01-08T16:07:15.528Z,19
2023-01-08T16:09:15.644Z,26
2023-01-08T16:11:15.729Z,38
2023-01-08T16:13:15.860Z,22
2023-01-08T16:15:15.965Z,29
2023-01-08T16:17:16.047Z,21
2023-01-08T16:19:16.151Z,25
2023-01-08T16:21:16.317Z,51
2023-01-08T16:23:16.376Z,50
2023-01-08T16:25:16.477Z,57
2023-01-08T16:27:16.592Z,63
2023-01-08T16:29:16.711Z,34
2023-01-08T16:31:16.874Z,27
2023-01-08T16:33:16.919Z,32
2023-01-08T16:35:17.052Z,41
2023-01-08T16:37:17.141Z,33
2023-01-08T16:39:17.274Z,39
2023-01-08T16:41:17.391Z,44
2023-01-08T16:43:17.458Z,43
2023-01-08T16:45:17.577Z,31
2023-01-08T16:47:17.663Z,49
2023-01-08T16:49:17.811Z,44
2023-01-08T16:51:17.905Z,38
2023-01-08T16:53:17.998Z,30
2023-01-08T16:55:18.078Z,25
2023-01-08T16:57:18.177Z,34
2023-01-08T16:59:23.138Z,40
2023-01-08T17:01:18.546Z,37
2023-01-08T17:03:18.527Z,26
2023-01-08T17:05:18.597Z,23
2023-01-08T17:07:18.698Z,29
2023-01-08T17:09:18.774Z,41
2023-01-08T17:11:18.898Z,31
2023-01-08T17:13:18.963Z,36
2023-01-08T17:15:19.089Z,53
2023-01-08T17:17:19.170Z,45
2023-01-08T17:19:19.285Z,48
2023-01-08T17:21:19.397Z,50
2023-01-08T17:23:19.499Z,38
2023-01-08T17:25:19.582Z,40
2023-01-08T17:27:19.686Z,37
2023-01-08T17:29:19.791Z,49
2023-01-08T17:31:19.934Z,55
2023-01-08T17:33:19.985Z,48
2023-01-08T17:35:20.093Z,42
2023-01-08T17:37:20.150Z,44
2023-01-08T17:39:20.288Z,41
2023-01-08T17:41:20.391Z,38
2023-01-08T17:43:20.511Z,37
2023-01-08T17:45:20.603Z,42
2023-01-08T17:47:20.679Z,51
2023-01-08T17:49:20.771Z,42
2023-01-08T17:51:20.909Z,49
2023-01-08T17:53:20.960Z,61
2023-01-08T17:55:21.097Z,60
2023-01-08T17:57:21.145Z,65
2023-01-08T17:59:21.278Z,57
2023-01-08T18:01:21.535Z,58
2023-01-08T18:03:21.514Z,52
2023-01-08T18:05:21.576Z,53
2023-01-08T18:07:21.668Z,60
2023-01-08T18:09:21.761Z,58
2023-01-08T18:11:21.890Z,62
2023-01-08T18:13:22.061Z,64
2023-01-08T18:15:22.075Z,65
2023-01-08T18:17:22.149Z,63
2023-01-08T18:19:22.261Z,68
2023-01-08T18:21:22.369Z,70
2023-01-08T18:23:22.459Z,74
2023-01-08T18:25:22.587Z,75
2023-01-08T18:27:22.668Z,71
2023-01-08T18:29:22.865Z,50
2023-01-08T18:31:22.921Z,40
2023-01-08T18:33:22.971Z,49
2023-01-08T18:35:23.048Z,52
2023-01-08T18:37:23.184Z,49
2023-01-08T18:39:23.281Z,53
2023-01-08T18:41:23.357Z,63
2023-01-08T18:43:23.456Z,47
2023-01-08T18:45:23.570Z,54
2023-01-08T18:47:23.657Z,52
2023-01-08T18:49:23.754Z,46
2023-01-08T18:51:23.896Z,50
2023-01-08T18:53:23.970Z,53
2023-01-08T18:55:24.058Z,63
2023-01-08T18:57:24.168Z,63
2023-01-08T18:59:24.255Z,59
2023-01-08T19:01:24.438Z,53
2023-01-08T19:03:24.448Z,48
2023-01-08T19:05:24.584Z,56
2023-01-08T19:07:24.632Z,54
2023-01-08T19:09:24.737Z,60
2023-01-08T19:11:24.852Z,69
2023-01-08T19:13:24.957Z,70
2023-01-08T19:15:25.008Z,70
2023-01-08T19:17:25.122Z,72
2023-01-08T19:19:25.189Z,64
2023-01-08T19:21:25.309Z,75
2023-01-08T19:23:25.399Z,60
2023-01-08T19:25:25.517Z,52
2023-01-08T19:27:25.545Z,54
2023-01-08T19:29:25.652Z,67
2023-01-08T19:31:25.780Z,62
2023-01-08T19:33:25.835Z,64
2023-01-08T19:35:25.979Z,73
2023-01-08T19:37:26.011Z,48
2023-01-08T19:39:26.087Z,61
2023-01-08T19:41:26.216Z,58
2023-01-08T19:43:26.258Z,56
2023-01-08T19:45:26.421Z,40
2023-01-08T19:47:26.481Z,42
2023-01-08T19:49:26.551Z,37
2023-01-08T19:51:26.630Z,41
2023-01-08T19:53:26.711Z,44
2023-01-08T19:55:26.786Z,33
2023-01-08T19:57:26.880Z,30
2023-01-08T19:59:26.984Z,29
2023-01-08T20:01:27.272Z,30
2023-01-08T20:03:27.133Z,28
2023-01-08T20:05:27.235Z,28
2023-01-08T20:07:27.298Z,31
2023-01-08T20:09:27.411Z,46
2023-01-08T20:11:27.507Z,33
2023-01-08T20:13:27.610Z,35
2023-01-08T20:15:27.699Z,27
2023-01-08T20:17:27.782Z,36
2023-01-08T20:19:27.877Z,31
2023-01-08T20:21:27.970Z,32
2023-01-08T20:23:28.062Z,30
2023-01-08T20:25:28.125Z,27
2023-01-08T20:27:28.293Z,27
2023-01-08T20:29:28.322Z,29
2023-01-08T20:31:28.510Z,31
2023-01-08T20:33:28.518Z,32
2023-01-08T20:35:28.588Z,35
2023-01-08T20:37:28.681Z,38
2023-01-08T20:39:28.808Z,54
2023-01-08T20:41:28.874Z,52
2023-01-08T20:43:28.964Z,48
2023-01-08T20:45:29.079Z,44
2023-01-08T20:47:29.135Z,43
2023-01-08T20:49:29.204Z,41
2023-01-08T20:51:29.287Z,42
2023-01-08T20:53:29.377Z,44
2023-01-08T20:55:29.483Z,60
2023-01-08T20:57:29.534Z,102
2023-01-08T20:59:29.645Z,101
2023-01-08T21:01:29.844Z,106
2023-01-08T21:03:29.808Z,102
2023-01-08T21:05:29.896Z,103
2023-01-08T21:07:29.991Z,103
2023-01-08T21:09:30.102Z,104
2023-01-08T21:11:30.173Z,104
2023-01-08T21:13:30.282Z,106
2023-01-08T21:16:00.482Z,106
2023-01-08T21:18:00.552Z,108
2023-01-08T21:20:00.680Z,105
2023-01-08T21:22:00.769Z,105
2023-01-08T21:24:00.899Z,103
2023-01-08T21:26:01.011Z,103
2023-01-08T21:28:01.176Z,106
2023-01-08T21:30:01.229Z,111
2023-01-08T21:32:01.548Z,112
2023-01-08T21:34:01.478Z,105
2023-01-08T21:36:01.613Z,76
2023-01-08T21:38:01.718Z,77
2023-01-08T21:40:01.853Z,56
2023-01-08T21:42:01.945Z,54
2023-01-08T21:44:02.078Z,41
2023-01-08T21:46:02.256Z,39
2023-01-08T21:48:02.299Z,39
2023-01-08T21:50:02.419Z,41
2023-01-08T21:52:02.552Z,39
2023-01-08T21:54:02.660Z,39
2023-01-08T21:56:02.827Z,48
2023-01-08T21:58:02.987Z,47
2023-01-08T22:00:03.018Z,45
2023-01-08T22:02:03.182Z,36
2023-01-08T22:04:03.275Z,34
2023-01-08T22:06:03.359Z,34
2023-01-08T22:08:03.443Z,35
2023-01-08T22:10:03.606Z,34
2023-01-08T22:12:03.662Z,32
2023-01-08T22:14:03.752Z,31
2023-01-08T22:16:03.922Z,33
2023-01-08T22:18:03.955Z,32
2023-01-08T22:20:04.084Z,34
2023-01-08T22:22:04.130Z,34
2023-01-08T22:24:04.249Z,39
2023-01-08T22:26:04.377Z,50
2023-01-08T22:28:04.469Z,50
2023-01-08T22:30:05.371Z,55
2023-01-08T22:32:04.695Z,58
2023-01-08T22:34:04.822Z,64
2023-01-08T22:36:04.903Z,61
2023-01-08T22:38:05.036Z,62
2023-01-08T22:40:05.160Z,63
2023-01-08T22:42:05.216Z,62
2023-01-08T22:44:05.349Z,65
2023-01-08T22:46:05.523Z,66
2023-01-08T22:48:05.966Z,63
2023-01-08T22:50:05.655Z,69
2023-01-08T22:52:05.800Z,61
2023-01-08T22:54:05.929Z,54
2023-01-08T22:56:06.023Z,36
2023-01-08T22:58:06.134Z,33
2023-01-08T23:00:06.261Z,30
2023-01-08T23:02:06.339Z,30
2023-01-08T23:04:06.500Z,28
2023-01-08T23:06:06.579Z,30
2023-01-08T23:08:06.714Z,28
2023-01-08T23:10:06.823Z,26
2023-01-08T23:12:06.968Z,26
2023-01-08T23:14:07.063Z,24
2023-01-08T23:16:07.190Z,26
2023-01-08T23:18:07.299Z,28
2023-01-08T23:20:07.384Z,29
2023-01-08T23:22:07.520Z,28
2023-01-08T23:24:07.606Z,28
2023-01-08T23:26:07.701Z,27
2023-01-08T23:28:07.843Z,27
2023-01-08T23:30:07.937Z,23
2023-01-08T23:32:08.044Z,22
2023-01-08T23:34:08.163Z,23
2023-01-08T23:36:23.984Z,26
2023-01-08T23:38:08.367Z,28
2023-01-08T23:40:08.476Z,28
2023-01-08T23:42:08.609Z,26
2023-01-08T23:44:08.698Z,23
2023-01-08T23:46:08.924Z,21
2023-01-08T23:48:08.932Z,21
2023-01-08T23:50:08.991Z,20
2023-01-08T23:52:09.137Z,20
2023-01-08T23:54:09.235Z,19
2023-01-08T23:56:09.312Z,19
2023-01-08T23:58:09.461Z,17
